createdAt,value
2019-03-08T00:03:05.893Z,1.30
2019-03-08T00:07:59.393Z,1.27
2019-03-08T00:12:53.164Z,1.30
2019-03-08T00:17:46.736Z,1.37
2019-03-08T00:22:40.327Z,0.97
2019-03-08T00:27:33.775Z,1.23
2019-03-08T00:32:27.266Z,1.30
2019-03-08T00:37:20.735Z,1.30
2019-03-08T00:42:14.258Z,1.27
2019-03-08T00:47:07.819Z,1.40
2019-03-08T00:52:01.305Z,0.90
2019-03-08T00:56:54.947Z,1.60
2019-03-08T01:01:48.479Z,1.20
2019-03-08T01:06:41.960Z,1.07
2019-03-08T01:11:35.530Z,1.20
2019-03-08T01:16:29.005Z,1.40
2019-03-08T01:21:22.587Z,1.13
2019-03-08T01:26:16.074Z,1.20
2019-03-08T01:31:09.943Z,1.20
2019-03-08T01:36:03.711Z,1.20
2019-03-08T01:40:57.163Z,1.37
2019-03-08T01:45:50.797Z,1.10
2019-03-08T01:50:44.289Z,1.13
2019-03-08T01:55:38.281Z,1.03
2019-03-08T02:00:31.854Z,1.27
2019-03-08T02:05:25.936Z,1.10
2019-03-08T02:10:19.950Z,1.37
2019-03-08T02:15:14.753Z,1.00
2019-03-08T02:20:10.604Z,1.27
2019-03-08T02:25:04.547Z,1.27
2019-03-08T02:29:58.169Z,1.50
2019-03-08T02:34:51.689Z,1.53
2019-03-08T02:39:45.543Z,1.80
2019-03-08T02:44:39.086Z,2.17
2019-03-08T02:49:32.698Z,1.70
2019-03-08T02:54:26.194Z,1.50
2019-03-08T02:59:19.775Z,1.33
2019-03-08T03:04:13.395Z,1.27
2019-03-08T03:09:07.114Z,1.87
2019-03-08T03:14:00.606Z,1.30
2019-03-08T03:18:54.358Z,1.43
2019-03-08T03:23:47.977Z,1.30
2019-03-08T03:28:41.612Z,1.20
2019-03-08T03:33:35.336Z,1.10
2019-03-08T03:38:28.938Z,1.43
2019-03-08T03:43:22.514Z,1.30
2019-03-08T03:48:15.991Z,1.10
2019-03-08T03:53:09.439Z,1.13
2019-03-08T03:58:02.929Z,1.00
2019-03-08T04:02:56.441Z,1.20
2019-03-08T04:07:49.940Z,1.30
2019-03-08T04:12:43.491Z,1.13
2019-03-08T04:17:37.078Z,1.10
2019-03-08T04:22:30.879Z,1.10
2019-03-08T04:27:24.336Z,1.07
2019-03-08T04:32:17.912Z,1.10
2019-03-08T04:37:11.429Z,1.13
2019-03-08T04:42:05.309Z,1.27
2019-03-08T04:46:58.972Z,1.33
2019-03-08T04:51:52.375Z,1.10
2019-03-08T04:56:47.061Z,1.60
2019-03-08T05:01:40.638Z,0.93
2019-03-08T05:06:34.084Z,0.87
2019-03-08T05:11:28.014Z,1.17
2019-03-08T05:16:21.389Z,0.80
2019-03-08T05:21:14.860Z,0.60
2019-03-08T05:26:08.554Z,0.97
2019-03-08T05:31:02.447Z,1.10
2019-03-08T05:35:56.025Z,0.73
2019-03-08T05:40:49.537Z,1.10
2019-03-08T05:45:43.275Z,1.40
2019-03-08T05:50:36.966Z,1.20
2019-03-08T05:55:30.542Z,1.43
2019-03-08T06:00:31.986Z,1.40
2019-03-08T06:05:21.114Z,1.40
2019-03-08T06:10:34.867Z,1.60
2019-03-08T06:15:28.630Z,1.40
2019-03-08T06:20:22.340Z,1.90
2019-03-08T06:25:15.771Z,1.37
2019-03-08T06:30:09.371Z,2.07
2019-03-08T06:35:03.690Z,1.97
2019-03-08T06:39:59.378Z,2.20
2019-03-08T06:44:52.773Z,2.10
2019-03-08T06:49:46.281Z,2.10
2019-03-08T06:54:39.859Z,2.97
2019-03-08T06:59:42.148Z,2.47
2019-03-08T07:04:35.607Z,2.20
2019-03-08T07:09:29.075Z,2.17
2019-03-08T07:14:22.562Z,2.00
2019-03-08T07:19:16.070Z,2.43
2019-03-08T07:24:19.068Z,2.97
2019-03-08T07:29:30.775Z,2.43
2019-03-08T07:34:42.689Z,2.80
2019-03-08T07:39:54.589Z,2.50
2019-03-08T07:45:09.500Z,2.70
2019-03-08T07:50:09.863Z,3.30
2019-03-08T07:55:42.154Z,2.90
2019-03-08T08:00:55.367Z,2.97
2019-03-08T08:06:08.642Z,3.10
2019-03-08T08:11:27.717Z,2.87
2019-03-08T08:16:47.498Z,2.93
2019-03-08T08:22:09.871Z,3.40
2019-03-08T08:27:25.572Z,5.30
2019-03-08T08:32:33.590Z,4.73
2019-03-08T08:37:38.438Z,3.60
2019-03-08T08:42:57.724Z,3.67
2019-03-08T08:48:15.114Z,3.70
2019-03-08T08:53:31.991Z,4.07
2019-03-08T08:58:47.998Z,3.83
2019-03-08T09:04:07.035Z,3.70
2019-03-08T09:09:24.520Z,3.60
2019-03-08T09:14:25.789Z,4.23
2019-03-08T09:19:37.801Z,4.13
2019-03-08T09:24:54.101Z,4.17
2019-03-08T09:30:06.322Z,4.90
2019-03-08T09:35:22.214Z,4.37
2019-03-08T09:40:42.748Z,4.30
2019-03-08T09:45:56.095Z,5.10
2019-03-08T09:51:09.823Z,4.13
2019-03-08T09:56:30.666Z,4.50
2019-03-08T10:01:55.994Z,3.70
2019-03-08T10:07:07.899Z,3.77
2019-03-08T10:12:16.050Z,2.77
2019-03-08T10:17:47.910Z,2.90
2019-03-08T10:22:59.928Z,3.97
2019-03-08T10:28:04.877Z,3.43
2019-03-08T10:33:10.148Z,3.00
2019-03-08T10:38:22.293Z,2.60
2019-03-08T10:43:25.351Z,3.83
2019-03-08T10:48:25.054Z,2.50
2019-03-08T10:53:30.947Z,3.40
2019-03-08T10:58:56.683Z,2.77
2019-03-08T11:04:09.717Z,2.60
2019-03-08T11:09:21.736Z,3.07
2019-03-08T11:14:33.677Z,2.50
2019-03-08T11:19:45.036Z,3.03
2019-03-08T11:25:07.480Z,2.07
2019-03-08T11:30:19.625Z,2.87
2019-03-08T11:35:42.204Z,2.87
2019-03-08T11:40:55.495Z,2.90
2019-03-08T11:46:10.486Z,2.90
2019-03-08T11:51:29.818Z,2.87
2019-03-08T11:56:37.523Z,3.53
2019-03-08T12:01:59.910Z,3.57
2019-03-08T12:07:07.202Z,3.37
2019-03-08T12:12:19.503Z,3.50
2019-03-08T12:17:35.034Z,3.37
2019-03-08T12:22:54.651Z,3.73
2019-03-08T12:28:04.899Z,3.30
2019-03-08T12:33:21.198Z,3.47
2019-03-08T12:38:31.483Z,3.73
2019-03-08T12:43:39.467Z,3.67
2019-03-08T12:49:04.719Z,3.60
2019-03-08T12:54:24.605Z,3.73
2019-03-08T12:59:36.015Z,3.87
2019-03-08T13:04:49.548Z,2.90
2019-03-08T13:09:49.326Z,3.03
2019-03-08T13:14:43.282Z,2.63
2019-03-08T13:19:37.040Z,2.30
2019-03-08T13:24:30.808Z,2.10
2019-03-08T13:29:25.123Z,2.20
2019-03-08T13:34:18.990Z,2.30
2019-03-08T13:39:12.677Z,2.20
2019-03-08T13:44:06.454Z,2.10
2019-03-08T13:49:00.031Z,1.80
2019-03-08T13:53:54.172Z,1.97
2019-03-08T13:58:48.050Z,2.17
2019-03-08T14:03:42.055Z,2.07
2019-03-08T14:08:35.800Z,1.40
2019-03-08T14:13:29.948Z,1.63
2019-03-08T14:18:23.801Z,1.53
2019-03-08T14:23:17.610Z,2.00
2019-03-08T14:28:11.283Z,1.70
2019-03-08T14:33:05.294Z,1.70
2019-03-08T14:37:59.046Z,1.87
2019-03-08T14:43:05.854Z,1.67
2019-03-08T14:48:00.264Z,1.30
2019-03-08T14:52:55.301Z,1.67
2019-03-08T14:57:49.673Z,2.20
2019-03-08T15:02:47.154Z,1.63
2019-03-08T15:07:41.125Z,1.90
2019-03-08T15:12:37.585Z,2.00
2019-03-08T15:17:30.145Z,2.00
2019-03-08T15:22:23.794Z,1.83
2019-03-08T15:27:17.626Z,1.47
2019-03-08T15:32:11.302Z,1.50
2019-03-08T15:37:04.997Z,1.67
2019-03-08T15:42:02.439Z,1.40
2019-03-08T15:46:55.713Z,1.90
2019-03-08T15:51:50.923Z,1.50
2019-03-08T15:56:44.332Z,1.43
2019-03-08T16:01:38.112Z,1.83
2019-03-08T16:06:31.909Z,2.07
2019-03-08T16:11:25.598Z,1.93
2019-03-08T16:16:19.456Z,2.37
2019-03-08T16:21:14.601Z,1.77
2019-03-08T16:26:08.344Z,2.43
2019-03-08T16:31:12.623Z,1.40
2019-03-08T16:36:31.839Z,1.80
2019-03-08T16:41:44.635Z,1.97
2019-03-08T16:46:51.311Z,2.20
2019-03-08T16:52:06.622Z,1.73
2019-03-08T16:57:18.540Z,2.00
2019-03-08T17:02:30.753Z,1.90
2019-03-08T17:07:55.863Z,1.90
2019-03-08T17:13:11.060Z,2.27
2019-03-08T17:18:10.060Z,1.90
2019-03-08T17:23:23.516Z,2.20
2019-03-08T17:28:33.170Z,1.67
2019-03-08T17:33:55.116Z,2.00
2019-03-08T17:39:17.878Z,1.70
2019-03-08T17:44:34.734Z,1.70
2019-03-08T17:49:41.400Z,2.00
2019-03-08T17:55:09.285Z,2.03
2019-03-08T18:00:28.261Z,2.57
2019-03-08T18:05:50.815Z,2.77
2019-03-08T18:11:02.943Z,2.40
2019-03-08T18:16:16.182Z,2.97
2019-03-08T18:21:29.839Z,2.83
2019-03-08T18:26:33.759Z,2.70
2019-03-08T18:31:40.408Z,2.77
2019-03-08T18:36:56.251Z,2.63
2019-03-08T18:42:07.890Z,3.13
2019-03-08T18:47:16.254Z,3.63
2019-03-08T18:52:31.569Z,3.93
2019-03-08T18:57:44.723Z,4.00
2019-03-08T19:03:07.797Z,4.20
2019-03-08T19:08:31.655Z,4.20
2019-03-08T19:13:32.143Z,3.73
2019-03-08T19:18:57.191Z,4.00
2019-03-08T19:23:59.115Z,3.90
2019-03-08T19:29:10.832Z,4.30
2019-03-08T19:34:32.476Z,5.47
2019-03-08T19:39:48.949Z,4.03
2019-03-08T19:44:50.993Z,3.43
2019-03-08T19:50:02.411Z,3.80
2019-03-08T19:55:18.361Z,3.47
2019-03-08T20:00:31.047Z,3.40
2019-03-08T20:06:05.095Z,3.70
2019-03-08T20:11:24.076Z,3.20
2019-03-08T20:16:29.332Z,3.53
2019-03-08T20:21:36.451Z,3.23
2019-03-08T20:26:49.507Z,3.00
2019-03-08T20:32:05.375Z,3.63
2019-03-08T20:37:12.885Z,3.77
2019-03-08T20:42:27.692Z,3.83
2019-03-08T20:47:24.573Z,3.33
2019-03-08T20:52:18.183Z,2.77
2019-03-08T20:57:11.804Z,2.77
2019-03-08T21:02:05.616Z,2.97
2019-03-08T21:07:04.253Z,2.90
2019-03-08T21:11:57.959Z,3.23
2019-03-08T21:16:51.555Z,2.90
2019-03-08T21:21:45.121Z,2.90
2019-03-08T21:26:38.739Z,3.40
2019-03-08T21:31:32.286Z,2.70
2019-03-08T21:36:26.108Z,3.10
2019-03-08T21:41:19.959Z,2.87
2019-03-08T21:46:13.657Z,3.00
2019-03-08T21:51:07.232Z,2.77
2019-03-08T21:56:02.319Z,2.87
2019-03-08T22:00:56.050Z,3.17
2019-03-08T22:05:49.604Z,2.70
2019-03-08T22:11:05.627Z,2.73
2019-03-08T22:15:59.070Z,2.87
2019-03-08T22:20:52.806Z,3.00
2019-03-08T22:25:46.419Z,2.93
2019-03-08T22:30:40.291Z,2.23
2019-03-08T22:35:33.939Z,2.47
2019-03-08T22:40:27.673Z,2.57
2019-03-08T22:45:21.356Z,2.07
2019-03-08T22:50:15.042Z,2.30
2019-03-08T22:55:09.720Z,2.53
2019-03-08T23:00:03.948Z,2.30
2019-03-08T23:04:57.730Z,2.30
2019-03-08T23:09:51.404Z,2.20
2019-03-08T23:14:45.226Z,2.10
2019-03-08T23:19:38.871Z,2.07
2019-03-08T23:24:32.994Z,2.13
2019-03-08T23:29:33.325Z,1.90
2019-03-08T23:34:27.117Z,2.00
2019-03-08T23:39:20.836Z,2.40
2019-03-08T23:44:14.559Z,1.60
2019-03-08T23:49:08.157Z,2.20
2019-03-08T23:54:03.705Z,2.40
2019-03-08T23:58:57.115Z,2.00
